createdAt,value
2019-04-05T00:01:25.799Z,51.80
2019-04-05T00:03:56.071Z,51.70
2019-04-05T00:06:27.148Z,51.90
2019-04-05T00:08:58.781Z,51.90
2019-04-05T00:11:30.394Z,52.20
2019-04-05T00:14:02.074Z,52.20
2019-04-05T00:16:34.950Z,52.00
2019-04-05T00:19:06.542Z,51.90
2019-04-05T00:21:38.167Z,52.00
2019-04-05T00:24:09.506Z,52.10
2019-04-05T00:26:40.734Z,52.20
2019-04-05T00:29:12.911Z,52.10
2019-04-05T00:31:44.429Z,52.00
2019-04-05T00:34:16.424Z,52.20
2019-04-05T00:36:48.134Z,52.30
2019-04-05T00:39:19.336Z,52.40
2019-04-05T00:41:50.759Z,52.40
2019-04-05T00:44:22.550Z,52.30
2019-04-05T00:46:53.870Z,52.30
2019-04-05T00:49:25.436Z,52.30
2019-04-05T00:51:56.802Z,52.40
2019-04-05T00:54:28.353Z,52.50
2019-04-05T00:57:00.095Z,52.50
2019-04-05T00:59:30.586Z,52.80
2019-04-05T01:02:01.668Z,52.70
2019-04-05T01:04:32.928Z,52.70
2019-04-05T01:07:04.586Z,52.60
2019-04-05T01:09:36.322Z,52.60
2019-04-05T01:12:07.954Z,52.80
2019-04-05T01:14:39.431Z,52.70
2019-04-05T01:17:10.682Z,53.00
2019-04-05T01:19:44.366Z,52.80
2019-04-05T01:22:17.807Z,52.70
2019-04-05T01:24:49.538Z,52.40
2019-04-05T01:27:22.208Z,52.40
2019-04-05T01:29:53.457Z,52.40
2019-04-05T01:32:25.075Z,52.40
2019-04-05T01:34:56.738Z,52.30
2019-04-05T01:37:28.192Z,52.30
2019-04-05T01:40:00.111Z,52.40
2019-04-05T01:42:31.915Z,52.40
2019-04-05T01:45:02.134Z,52.30
2019-04-05T01:47:34.205Z,52.50
2019-04-05T01:50:06.366Z,52.30
2019-04-05T01:52:38.882Z,52.30
2019-04-05T01:55:10.909Z,52.30
2019-04-05T01:57:42.554Z,52.50
2019-04-05T02:00:14.293Z,52.50
2019-04-05T02:02:45.543Z,52.30
2019-04-05T02:05:16.940Z,52.30
2019-04-05T02:07:48.144Z,52.30
2019-04-05T02:10:19.637Z,52.50
2019-04-05T02:12:51.201Z,52.60
2019-04-05T02:15:27.504Z,52.60
2019-04-05T02:17:58.873Z,52.60
2019-04-05T02:20:30.739Z,52.70
2019-04-05T02:23:00.883Z,53.00
2019-04-05T02:25:31.999Z,52.90
2019-04-05T02:28:03.237Z,52.70
2019-04-05T02:30:34.776Z,52.40
2019-04-05T02:33:06.989Z,52.70
2019-04-05T02:35:39.218Z,52.70
2019-04-05T02:38:11.517Z,52.90
2019-04-05T02:40:44.307Z,52.60
2019-04-05T02:43:18.691Z,52.60
2019-04-05T02:45:50.771Z,52.50
2019-04-05T02:48:22.271Z,52.80
2019-04-05T02:50:57.320Z,52.40
2019-04-05T02:53:29.990Z,52.30
2019-04-05T02:56:03.190Z,52.40
2019-04-05T02:58:36.852Z,52.10
2019-04-05T03:01:08.558Z,52.30
2019-04-05T03:03:40.991Z,52.10
2019-04-05T03:06:13.038Z,52.20
2019-04-05T03:08:45.083Z,52.30
2019-04-05T03:11:19.073Z,52.20
2019-04-05T03:13:56.489Z,52.30
2019-04-05T03:16:40.853Z,52.50
2019-04-05T03:19:15.730Z,52.60
2019-04-05T03:21:53.637Z,52.40
2019-04-05T03:24:28.582Z,52.50
2019-04-05T03:27:04.377Z,52.50
2019-04-05T03:29:35.887Z,52.40
2019-04-05T03:32:07.218Z,52.30
2019-04-05T03:34:39.723Z,52.10
2019-04-05T03:37:11.470Z,52.40
2019-04-05T03:39:42.011Z,52.70
2019-04-05T03:42:13.113Z,52.90
2019-04-05T03:44:45.107Z,53.00
2019-04-05T03:47:16.552Z,52.80
2019-04-05T03:49:48.453Z,52.40
2019-04-05T03:52:18.910Z,52.60
2019-04-05T03:54:50.924Z,52.30
2019-04-05T03:57:23.091Z,52.60
2019-04-05T03:59:55.294Z,52.30
2019-04-05T04:02:26.766Z,52.50
2019-04-05T04:04:58.600Z,52.30
2019-04-05T04:07:30.206Z,52.20
2019-04-05T04:10:01.577Z,52.30
2019-04-05T04:12:33.319Z,52.40
2019-04-05T04:15:14.629Z,52.50
2019-04-05T04:17:47.476Z,52.30
2019-04-05T04:20:38.492Z,52.30
2019-04-05T04:23:10.625Z,52.50
2019-04-05T04:25:43.134Z,52.30
2019-04-05T04:28:14.910Z,52.30
2019-04-05T04:30:47.622Z,52.60
2019-04-05T04:33:19.487Z,52.60
2019-04-05T04:35:51.824Z,52.70
2019-04-05T04:38:25.970Z,52.60
2019-04-05T04:40:57.611Z,52.60
2019-04-05T04:43:29.590Z,52.90
2019-04-05T04:46:01.609Z,52.90
2019-04-05T04:48:33.553Z,53.00
2019-04-05T04:51:04.891Z,53.10
2019-04-05T04:53:36.249Z,52.90
2019-04-05T04:56:08.578Z,52.80
2019-04-05T04:58:39.879Z,53.20
2019-04-05T05:01:11.995Z,52.90
2019-04-05T05:03:43.718Z,53.10
2019-04-05T05:06:16.559Z,52.80
2019-04-05T05:08:48.436Z,52.90
2019-04-05T05:11:20.134Z,52.90
2019-04-05T05:13:52.484Z,53.00
2019-04-05T05:16:24.107Z,53.20
2019-04-05T05:18:55.424Z,53.30
2019-04-05T05:21:27.401Z,53.50
2019-04-05T05:23:59.302Z,53.70
2019-04-05T05:26:31.613Z,53.80
2019-04-05T05:29:03.666Z,53.20
2019-04-05T05:31:36.221Z,53.40
2019-04-05T05:34:08.439Z,53.10
2019-04-05T05:36:39.657Z,53.00
2019-04-05T05:39:11.643Z,53.30
2019-04-05T05:41:43.156Z,53.50
2019-04-05T05:44:14.889Z,53.50
2019-04-05T05:46:45.604Z,53.40
2019-04-05T05:49:17.151Z,53.50
2019-04-05T05:51:49.539Z,53.40
2019-04-05T05:54:21.749Z,53.90
2019-04-05T05:56:53.604Z,53.80
2019-04-05T05:59:24.979Z,53.80
2019-04-05T06:01:56.400Z,54.00
2019-04-05T06:04:28.044Z,54.20
2019-04-05T06:06:59.560Z,54.30
2019-04-05T06:09:30.963Z,54.50
2019-04-05T06:12:02.377Z,54.30
2019-04-05T06:14:34.475Z,54.30
2019-04-05T06:17:08.107Z,54.30
2019-04-05T06:19:39.702Z,54.40
2019-04-05T06:22:10.925Z,54.50
2019-04-05T06:24:42.827Z,54.50
2019-04-05T06:27:14.049Z,54.50
2019-04-05T06:29:45.348Z,54.70
2019-04-05T06:32:16.721Z,54.60
2019-04-05T06:34:48.048Z,54.60
2019-04-05T06:37:19.240Z,54.70
2019-04-05T06:39:50.875Z,54.90
2019-04-05T06:42:22.098Z,54.80
2019-04-05T06:44:53.351Z,54.90
2019-04-05T06:47:24.599Z,55.20
2019-04-05T06:49:56.070Z,55.30
2019-04-05T06:52:27.619Z,55.50
2019-04-05T06:55:00.158Z,55.70
2019-04-05T06:57:31.538Z,56.00
2019-04-05T07:00:02.754Z,56.20
2019-04-05T07:02:34.994Z,56.50
2019-04-05T07:05:06.649Z,56.50
2019-04-05T07:07:38.261Z,56.70
2019-04-05T07:10:09.571Z,56.80
2019-04-05T07:12:40.818Z,57.00
2019-04-05T07:15:12.273Z,57.10
2019-04-05T07:17:44.546Z,57.10
2019-04-05T07:20:15.850Z,57.20
2019-04-05T07:22:47.073Z,57.30
2019-04-05T07:25:18.592Z,57.70
2019-04-05T07:27:49.915Z,57.90
2019-04-05T07:30:21.588Z,58.10
2019-04-05T07:32:53.434Z,58.20
2019-04-05T07:35:33.253Z,58.10
2019-04-05T07:37:56.456Z,58.30
2019-04-05T07:40:28.275Z,58.60
2019-04-05T07:42:59.062Z,58.50
2019-04-05T07:45:30.169Z,58.70
2019-04-05T07:48:01.562Z,58.80
2019-04-05T07:50:33.650Z,58.70
2019-04-05T07:53:05.164Z,58.70
2019-04-05T07:55:36.554Z,58.50
2019-04-05T07:58:08.175Z,58.50
2019-04-05T08:00:50.945Z,58.30
2019-04-05T08:03:24.150Z,58.70
2019-04-05T08:05:55.821Z,58.60
2019-04-05T08:08:36.567Z,58.80
2019-04-05T08:11:08.427Z,59.00
2019-04-05T08:13:38.825Z,59.00
2019-04-05T08:16:09.839Z,58.80
2019-04-05T08:18:41.264Z,58.60
2019-04-05T08:21:13.760Z,58.50
2019-04-05T08:23:45.143Z,58.50
2019-04-05T08:26:16.938Z,58.40
2019-04-05T08:28:47.181Z,58.20
2019-04-05T08:31:18.233Z,58.30
2019-04-05T08:33:49.831Z,58.30
2019-04-05T08:36:21.415Z,58.20
2019-04-05T08:38:54.286Z,58.30
2019-04-05T08:41:26.296Z,58.30
2019-04-05T08:43:58.797Z,58.00
2019-04-05T08:46:30.501Z,58.20
2019-04-05T08:49:10.551Z,58.20
2019-04-05T08:51:37.375Z,58.10
2019-04-05T08:54:08.947Z,57.80
2019-04-05T08:56:40.249Z,57.70
2019-04-05T08:59:11.904Z,57.60
2019-04-05T09:01:43.422Z,57.30
2019-04-05T09:04:14.794Z,56.90
2019-04-05T09:06:46.401Z,56.60
2019-04-05T09:09:18.084Z,56.90
2019-04-05T09:11:49.710Z,56.70
2019-04-05T09:14:21.111Z,56.80
2019-04-05T09:16:52.488Z,56.60
2019-04-05T09:19:24.257Z,57.00
2019-04-05T09:21:55.706Z,57.40
2019-04-05T09:24:26.984Z,57.10
2019-04-05T09:26:58.193Z,57.50
2019-04-05T09:29:29.725Z,57.10
2019-04-05T09:32:00.910Z,56.60
2019-04-05T09:34:34.080Z,56.60
2019-04-05T09:37:06.180Z,56.50
2019-04-05T09:39:37.407Z,56.10
2019-04-05T09:42:08.954Z,55.80
2019-04-05T09:44:40.279Z,55.80
2019-04-05T09:47:11.695Z,55.70
2019-04-05T09:49:43.370Z,55.70
2019-04-05T09:52:14.946Z,54.80
2019-04-05T09:54:46.858Z,54.90
2019-04-05T09:57:17.208Z,55.10
2019-04-05T09:59:48.297Z,54.90
2019-04-05T10:02:19.936Z,55.20
2019-04-05T10:04:51.539Z,54.80
2019-04-05T10:07:23.068Z,55.20
2019-04-05T10:09:54.811Z,55.20
2019-04-05T10:12:26.421Z,55.60
2019-04-05T10:14:58.262Z,55.50
2019-04-05T10:17:31.171Z,55.40
2019-04-05T10:20:02.923Z,56.30
2019-04-05T10:22:35.888Z,55.60
2019-04-05T10:25:07.278Z,55.80
2019-04-05T10:27:38.829Z,55.70
2019-04-05T10:30:12.467Z,56.30
2019-04-05T10:32:46.067Z,55.90
2019-04-05T10:35:17.714Z,55.60
2019-04-05T10:37:49.065Z,55.80
2019-04-05T10:40:20.639Z,55.80
2019-04-05T10:42:52.424Z,55.50
2019-04-05T10:45:23.856Z,56.00
2019-04-05T10:47:56.145Z,55.40
2019-04-05T10:50:27.770Z,55.40
2019-04-05T10:52:59.150Z,55.80
2019-04-05T10:55:30.443Z,56.10
2019-04-05T10:58:02.050Z,55.90
2019-04-05T11:00:34.164Z,55.30
2019-04-05T11:03:07.981Z,55.30
2019-04-05T11:05:40.139Z,55.50
2019-04-05T11:08:11.650Z,55.60
2019-04-05T11:10:42.938Z,55.50
2019-04-05T11:13:14.566Z,56.10
2019-04-05T11:15:45.827Z,55.30
2019-04-05T11:18:18.380Z,55.60
2019-04-05T11:20:49.838Z,55.00
2019-04-05T11:23:21.908Z,55.20
2019-04-05T11:25:54.064Z,55.10
2019-04-05T11:28:25.374Z,55.30
2019-04-05T11:30:56.680Z,55.00
2019-04-05T11:33:28.267Z,55.00
2019-04-05T11:35:59.943Z,55.30
2019-04-05T11:38:30.388Z,55.00
2019-04-05T11:41:02.342Z,55.00
2019-04-05T11:43:35.987Z,54.50
2019-04-05T11:46:07.275Z,54.50
2019-04-05T11:48:41.172Z,54.90
2019-04-05T11:51:12.124Z,54.50
2019-04-05T11:53:43.318Z,54.50
2019-04-05T11:56:15.449Z,54.50
2019-04-05T11:58:50.109Z,54.40
2019-04-05T12:01:24.002Z,54.80
2019-04-05T12:03:56.830Z,54.30
2019-04-05T12:06:28.106Z,54.20
2019-04-05T12:09:01.463Z,53.90
2019-04-05T12:11:34.146Z,54.50
2019-04-05T12:14:05.615Z,54.70
2019-04-05T12:16:37.524Z,54.40
2019-04-05T12:19:09.187Z,54.20
2019-04-05T12:21:40.772Z,54.00
2019-04-05T12:24:12.651Z,53.90
2019-04-05T12:26:42.937Z,54.40
2019-04-05T12:29:14.398Z,54.00
2019-04-05T12:31:47.611Z,53.80
2019-04-05T12:34:22.239Z,53.80
2019-04-05T12:36:53.292Z,54.20
2019-04-05T12:39:24.887Z,53.80
2019-04-05T12:41:56.217Z,54.00
2019-04-05T12:44:27.485Z,54.20
2019-04-05T12:46:58.788Z,53.80
2019-04-05T12:49:30.478Z,53.50
2019-04-05T12:52:02.132Z,54.40
2019-04-05T12:54:33.758Z,54.00
2019-04-05T12:57:05.707Z,54.50
2019-04-05T12:59:37.054Z,53.70
2019-04-05T13:02:08.869Z,53.80
2019-04-05T13:04:40.154Z,53.60
2019-04-05T13:07:11.441Z,53.60
2019-04-05T13:09:45.554Z,53.70
2019-04-05T13:12:16.063Z,53.60
2019-04-05T13:14:47.617Z,53.80
2019-04-05T13:17:19.791Z,53.70
2019-04-05T13:19:51.101Z,54.10
2019-04-05T13:22:23.587Z,53.30
2019-04-05T13:24:54.959Z,53.40
2019-04-05T13:27:27.923Z,53.80
2019-04-05T13:29:59.208Z,53.50
2019-04-05T13:32:30.511Z,53.60
2019-04-05T13:35:02.076Z,53.60
2019-04-05T13:37:33.658Z,53.60
2019-04-05T13:40:06.511Z,54.40
2019-04-05T13:42:37.992Z,53.70
2019-04-05T13:45:11.460Z,53.20
2019-04-05T13:47:43.183Z,53.10
2019-04-05T13:50:14.929Z,53.20
2019-04-05T13:52:46.835Z,53.70
2019-04-05T13:55:18.551Z,53.50
2019-04-05T13:57:50.190Z,53.70
2019-04-05T14:00:21.741Z,53.10
2019-04-05T14:02:53.369Z,53.10
2019-04-05T14:05:24.674Z,53.30
2019-04-05T14:08:10.044Z,53.50
2019-04-05T14:10:34.223Z,53.30
2019-04-05T14:13:05.539Z,53.50
2019-04-05T14:15:37.232Z,53.30
2019-04-05T14:18:08.875Z,53.50
2019-04-05T14:20:41.283Z,53.50
2019-04-05T14:23:12.497Z,53.50
2019-04-05T14:25:43.758Z,53.50
2019-04-05T14:28:15.319Z,53.70
2019-04-05T14:30:46.985Z,53.30
2019-04-05T14:33:18.653Z,53.40
2019-04-05T14:35:50.280Z,53.20
2019-04-05T14:38:23.193Z,53.30
2019-04-05T14:40:55.341Z,53.30
2019-04-05T14:43:26.616Z,53.50
2019-04-05T14:45:58.218Z,53.30
2019-04-05T14:48:31.909Z,53.30
2019-04-05T14:51:02.665Z,53.30
2019-04-05T14:53:35.312Z,53.50
2019-04-05T14:56:06.656Z,53.20
2019-04-05T14:58:38.235Z,53.50
2019-04-05T15:01:10.671Z,53.30
2019-04-05T15:03:42.556Z,53.20
2019-04-05T15:06:14.466Z,53.30
2019-04-05T15:08:47.842Z,53.50
2019-04-05T15:11:19.696Z,53.30
2019-04-05T15:13:52.060Z,53.50
2019-04-05T15:16:23.570Z,53.20
2019-04-05T15:18:55.894Z,54.00
2019-04-05T15:21:27.792Z,53.60
2019-04-05T15:23:58.198Z,53.60
2019-04-05T15:26:31.126Z,53.40
2019-04-05T15:29:02.702Z,53.40
2019-04-05T15:31:34.611Z,53.70
2019-04-05T15:34:05.941Z,53.80
2019-04-05T15:36:37.532Z,53.70
2019-04-05T15:39:09.905Z,53.50
2019-04-05T15:41:41.194Z,53.60
2019-04-05T15:44:12.814Z,53.60
2019-04-05T15:46:44.050Z,53.70
2019-04-05T15:49:15.575Z,53.80
2019-04-05T15:51:46.798Z,53.70
2019-04-05T15:54:18.033Z,53.60
2019-04-05T15:56:49.253Z,53.90
2019-04-05T15:59:21.912Z,54.70
2019-04-05T16:01:53.265Z,54.90
2019-04-05T16:04:24.645Z,53.90
2019-04-05T16:06:56.202Z,52.60
2019-04-05T16:09:27.939Z,51.40
2019-04-05T16:11:58.443Z,49.90
2019-04-05T16:14:30.516Z,48.60
2019-04-05T16:17:02.113Z,46.90
2019-04-05T16:19:33.703Z,48.10
2019-04-05T16:22:05.133Z,49.50
2019-04-05T16:24:36.843Z,50.10
2019-04-05T16:27:08.821Z,50.40
2019-04-05T16:29:40.090Z,50.90
2019-04-05T16:32:11.329Z,51.30
2019-04-05T16:34:49.829Z,51.80
2019-04-05T16:37:21.646Z,51.90
2019-04-05T16:39:51.908Z,52.20
2019-04-05T16:42:24.418Z,52.40
2019-04-05T16:44:55.954Z,52.60
2019-04-05T16:47:27.395Z,52.70
2019-04-05T16:49:58.658Z,52.90
2019-04-05T16:52:43.800Z,52.80
2019-04-05T16:55:08.515Z,53.00
2019-04-05T16:57:40.646Z,53.20
2019-04-05T17:00:14.066Z,53.40
2019-04-05T17:02:46.075Z,53.60
2019-04-05T17:05:17.706Z,53.70
2019-04-05T17:07:49.456Z,53.90
2019-04-05T17:10:19.722Z,53.60
2019-04-05T17:12:51.361Z,53.80
2019-04-05T17:15:23.195Z,53.80
2019-04-05T17:17:56.750Z,53.90
2019-04-05T17:20:28.944Z,53.50
2019-04-05T17:23:01.011Z,53.60
2019-04-05T17:25:32.754Z,53.60
2019-04-05T17:28:06.496Z,53.70
2019-04-05T17:30:41.466Z,53.60
2019-04-05T17:33:12.941Z,53.80
2019-04-05T17:35:44.605Z,53.90
2019-04-05T17:38:15.966Z,54.00
2019-04-05T17:40:48.971Z,53.90
2019-04-05T17:43:20.730Z,53.90
2019-04-05T17:45:52.031Z,54.00
2019-04-05T17:48:23.764Z,54.00
2019-04-05T17:50:55.153Z,54.00
2019-04-05T17:53:26.904Z,54.10
2019-04-05T17:55:59.162Z,54.00
2019-04-05T17:58:33.469Z,54.10
2019-04-05T18:01:04.961Z,54.80
2019-04-05T18:03:36.852Z,54.30
2019-04-05T18:06:09.892Z,54.30
2019-04-05T18:08:40.997Z,54.50
2019-04-05T18:11:13.312Z,54.50
2019-04-05T18:13:45.010Z,54.50
2019-04-05T18:16:16.282Z,54.20
2019-04-05T18:18:47.866Z,54.30
2019-04-05T18:21:20.445Z,54.40
2019-04-05T18:23:52.422Z,54.40
2019-04-05T18:26:24.586Z,54.40
2019-04-05T18:28:56.282Z,54.30
2019-04-05T18:31:28.278Z,55.10
2019-04-05T18:33:59.339Z,54.70
2019-04-05T18:36:30.698Z,54.90
2019-04-05T18:39:02.446Z,54.80
2019-04-05T18:41:36.277Z,55.10
2019-04-05T18:44:08.053Z,54.90
2019-04-05T18:46:40.933Z,54.90
2019-04-05T18:49:39.492Z,54.90
2019-04-05T18:52:12.919Z,54.80
2019-04-05T18:54:44.322Z,54.90
2019-04-05T18:57:15.926Z,54.90
2019-04-05T18:59:47.188Z,54.80
2019-04-05T19:02:18.435Z,55.00
2019-04-05T19:04:49.721Z,54.90
2019-04-05T19:07:22.374Z,55.00
2019-04-05T19:09:54.161Z,55.10
2019-04-05T19:12:26.076Z,56.20
2019-04-05T19:14:58.724Z,54.90
2019-04-05T19:17:30.146Z,52.80
2019-04-05T19:20:01.578Z,49.80
2019-04-05T19:22:33.403Z,47.70
2019-04-05T19:25:05.941Z,48.20
2019-04-05T19:27:38.867Z,48.70
2019-04-05T19:50:42.579Z,53.60
2019-04-05T19:53:13.821Z,53.40
2019-04-05T19:55:45.079Z,53.20
2019-04-05T19:58:16.403Z,53.60
2019-04-05T20:00:47.608Z,54.20
2019-04-05T20:03:18.946Z,54.90
2019-04-05T20:05:50.503Z,55.20
2019-04-05T20:08:22.138Z,55.40
2019-04-05T20:10:53.850Z,55.70
2019-04-05T20:13:25.115Z,55.70
2019-04-05T20:15:56.407Z,55.70
2019-04-05T20:18:28.071Z,55.80
2019-04-05T20:21:00.247Z,55.80
2019-04-05T20:23:31.490Z,55.80
2019-04-05T20:26:02.918Z,56.00
2019-04-05T20:28:34.474Z,56.20
2019-04-05T20:31:05.779Z,56.40
2019-04-05T20:33:37.547Z,56.70
2019-04-05T20:36:09.185Z,56.90
2019-04-05T20:38:39.409Z,57.00
2019-04-05T20:41:11.008Z,57.00
2019-04-05T20:43:41.821Z,57.00
2019-04-05T20:46:12.851Z,56.90
2019-04-05T20:48:44.108Z,56.80
2019-04-05T20:51:15.966Z,56.90
2019-04-05T20:53:46.103Z,56.90
2019-04-05T20:56:17.387Z,56.70
2019-04-05T20:58:48.683Z,56.90
2019-04-05T21:01:20.235Z,57.30
2019-04-05T21:03:52.835Z,57.40
2019-04-05T21:06:24.123Z,56.50
2019-04-05T21:08:55.738Z,54.30
2019-04-05T21:11:27.345Z,51.10
2019-04-05T21:13:58.881Z,49.90
2019-04-05T21:16:30.149Z,50.80
2019-04-05T21:19:01.760Z,52.10
2019-04-05T21:21:32.953Z,53.20
2019-04-05T21:24:04.541Z,53.90
2019-04-05T21:26:37.542Z,54.30
2019-04-05T21:29:08.839Z,54.90
2019-04-05T21:31:40.862Z,55.50
2019-04-05T21:34:11.260Z,55.70
2019-04-05T21:36:42.696Z,55.90
2019-04-05T21:39:14.258Z,56.00
2019-04-05T21:41:45.832Z,56.30
2019-04-05T21:44:18.037Z,56.60
2019-04-05T21:46:50.036Z,56.60
2019-04-05T21:49:22.063Z,56.70
2019-04-05T21:51:56.264Z,57.10
2019-04-05T21:54:28.207Z,57.50
2019-04-05T21:56:59.578Z,57.70
2019-04-05T21:59:31.025Z,57.70
2019-04-05T22:02:02.534Z,57.80
2019-04-05T22:04:33.936Z,57.90
2019-04-05T22:07:06.087Z,57.60
2019-04-05T22:09:37.353Z,57.10
2019-04-05T22:12:08.720Z,56.90
2019-04-05T22:14:40.050Z,56.90
2019-04-05T22:17:11.299Z,57.10
2019-04-05T22:19:42.547Z,57.30
2019-04-05T22:22:13.972Z,57.80
2019-04-05T22:24:46.207Z,57.60
2019-04-05T22:27:18.080Z,57.30
2019-04-05T22:29:48.217Z,57.30
2019-04-05T22:32:19.313Z,57.50
2019-04-05T22:34:51.159Z,57.50
2019-04-05T22:37:21.824Z,57.40
2019-04-05T22:39:53.387Z,57.50
2019-04-05T22:42:23.960Z,57.50
2019-04-05T22:44:56.591Z,57.20
2019-04-05T22:47:27.834Z,57.00
2019-04-05T22:49:59.513Z,57.00
2019-04-05T22:52:31.269Z,57.10
2019-04-05T22:55:11.228Z,57.10
2019-04-05T22:57:35.885Z,57.10
2019-04-05T23:00:07.510Z,57.00
2019-04-05T23:02:40.913Z,57.20
2019-04-05T23:05:11.221Z,57.40
2019-04-05T23:07:42.541Z,57.40
2019-04-05T23:10:13.922Z,57.50
2019-04-05T23:12:45.172Z,57.70
2019-04-05T23:15:17.221Z,57.70
2019-04-05T23:17:48.888Z,57.90
2019-04-05T23:20:20.765Z,58.20
2019-04-05T23:22:50.961Z,58.20
2019-04-05T23:25:22.779Z,58.10
2019-04-05T23:27:54.447Z,58.00
2019-04-05T23:30:25.638Z,58.00
2019-04-05T23:32:57.043Z,57.80
2019-04-05T23:35:28.330Z,57.60
2019-04-05T23:37:59.629Z,57.40
2019-04-05T23:40:30.903Z,57.40
2019-04-05T23:43:03.210Z,57.40
2019-04-05T23:45:34.855Z,57.30
2019-04-05T23:48:06.312Z,57.40
2019-04-05T23:50:38.065Z,57.40
2019-04-05T23:53:10.351Z,57.30
2019-04-05T23:55:41.647Z,57.50
2019-04-05T23:58:13.367Z,57.80
